sensor_id;sensor_type;location;lat;lon;timestamp;P1;durP1;ratioP1;P2;durP2;ratioP2
17177;SDS011;8704;52.006;4.374;2023-03-15T00:01:13;5.85;;;1.60;;
17177;SDS011;8704;52.006;4.374;2023-03-15T00:03:45;4.43;;;1.40;;
17177;SDS011;8704;52.006;4.374;2023-03-15T00:06:13;6.10;;;1.75;;
17177;SDS011;8704;52.006;4.374;2023-03-15T00:08:42;3.40;;;1.33;;
17177;SDS011;8704;52.006;4.374;2023-03-15T00:11:12;4.78;;;1.77;;
17177;SDS011;8704;52.006;4.374;2023-03-15T00:13:41;3.38;;;1.90;;
17177;SDS011;8704;52.006;4.374;2023-03-15T00:16:09;4.35;;;2.13;;
17177;SDS011;8704;52.006;4.374;2023-03-15T00:18:45;5.43;;;1.52;;
17177;SDS011;8704;52.006;4.374;2023-03-15T00:21:13;4.85;;;1.60;;
17177;SDS011;8704;52.006;4.374;2023-03-15T00:23:42;4.32;;;1.70;;
17177;SDS011;8704;52.006;4.374;2023-03-15T00:26:10;5.10;;;1.98;;
17177;SDS011;8704;52.006;4.374;2023-03-15T00:28:38;5.97;;;1.92;;
17177;SDS011;8704;52.006;4.374;2023-03-15T00:31:07;5.97;;;2.55;;
17177;SDS011;8704;52.006;4.374;2023-03-15T00:33:40;3.17;;;1.73;;
17177;SDS011;8704;52.006;4.374;2023-03-15T00:36:11;4.45;;;1.95;;
17177;SDS011;8704;52.006;4.374;2023-03-15T00:38:39;4.28;;;1.67;;
17177;SDS011;8704;52.006;4.374;2023-03-15T00:41:09;6.20;;;2.28;;
17177;SDS011;8704;52.006;4.374;2023-03-15T00:43:38;5.60;;;1.88;;
17177;SDS011;8704;52.006;4.374;2023-03-15T00:46:08;7.10;;;2.25;;
17177;SDS011;8704;52.006;4.374;2023-03-15T00:48:37;3.65;;;1.77;;
17177;SDS011;8704;52.006;4.374;2023-03-15T00:51:05;4.95;;;1.85;;
17177;SDS011;8704;52.006;4.374;2023-03-15T00:53:37;4.72;;;1.98;;
17177;SDS011;8704;52.006;4.374;2023-03-15T00:56:07;2.08;;;1.88;;
17177;SDS011;8704;52.006;4.374;2023-03-15T00:58:37;5.53;;;2.28;;
17177;SDS011;8704;52.006;4.374;2023-03-15T01:01:05;12.75;;;2.95;;
17177;SDS011;8704;52.006;4.374;2023-03-15T01:03:34;6.07;;;2.03;;
17177;SDS011;8704;52.006;4.374;2023-03-15T01:06:06;5.72;;;1.85;;
17177;SDS011;8704;52.006;4.374;2023-03-15T01:11:04;4.38;;;2.63;;
17177;SDS011;8704;52.006;4.374;2023-03-15T01:13:34;3.80;;;3.13;;
17177;SDS011;8704;52.006;4.374;2023-03-15T01:16:02;4.35;;;1.65;;
17177;SDS011;8704;52.006;4.374;2023-03-15T01:18:31;4.05;;;1.58;;
17177;SDS011;8704;52.006;4.374;2023-03-15T01:20:59;5.05;;;1.80;;
17177;SDS011;8704;52.006;4.374;2023-03-15T01:23:28;4.97;;;1.80;;
17177;SDS011;8704;52.006;4.374;2023-03-15T01:25:59;3.97;;;2.45;;
17177;SDS011;8704;52.006;4.374;2023-03-15T01:28:28;6.63;;;2.05;;
17177;SDS011;8704;52.006;4.374;2023-03-15T01:30:56;6.00;;;2.58;;
17177;SDS011;8704;52.006;4.374;2023-03-15T01:33:25;4.35;;;1.58;;
17177;SDS011;8704;52.006;4.374;2023-03-15T01:35:57;4.28;;;2.33;;
17177;SDS011;8704;52.006;4.374;2023-03-15T01:38:26;3.63;;;2.22;;
17177;SDS011;8704;52.006;4.374;2023-03-15T01:40:54;6.18;;;2.85;;
17177;SDS011;8704;52.006;4.374;2023-03-15T01:43:25;8.35;;;3.58;;
17177;SDS011;8704;52.006;4.374;2023-03-15T01:46:04;3.53;;;3.03;;
17177;SDS011;8704;52.006;4.374;2023-03-15T01:48:44;4.35;;;3.05;;
17177;SDS011;8704;52.006;4.374;2023-03-15T01:51:18;5.18;;;3.08;;
17177;SDS011;8704;52.006;4.374;2023-03-15T01:56:20;5.57;;;2.90;;
17177;SDS011;8704;52.006;4.374;2023-03-15T01:58:52;3.35;;;2.83;;
17177;SDS011;8704;52.006;4.374;2023-03-15T02:01:21;5.55;;;2.30;;
17177;SDS011;8704;52.006;4.374;2023-03-15T02:03:51;6.78;;;2.67;;
17177;SDS011;8704;52.006;4.374;2023-03-15T02:06:22;6.38;;;3.78;;
17177;SDS011;8704;52.006;4.374;2023-03-15T02:08:52;4.32;;;4.00;;
17177;SDS011;8704;52.006;4.374;2023-03-15T02:13:54;4.82;;;4.32;;
17177;SDS011;8704;52.006;4.374;2023-03-15T02:16:24;6.00;;;5.27;;
17177;SDS011;8704;52.006;4.374;2023-03-15T02:18:52;7.28;;;4.75;;
17177;SDS011;8704;52.006;4.374;2023-03-15T02:21:24;3.58;;;3.03;;
17177;SDS011;8704;52.006;4.374;2023-03-15T02:24:04;7.85;;;3.67;;
17177;SDS011;8704;52.006;4.374;2023-03-15T02:26:39;3.58;;;2.72;;
17177;SDS011;8704;52.006;4.374;2023-03-15T02:29:13;5.65;;;4.03;;
17177;SDS011;8704;52.006;4.374;2023-03-15T02:31:41;10.27;;;2.58;;
17177;SDS011;8704;52.006;4.374;2023-03-15T02:34:10;5.40;;;2.97;;
17177;SDS011;8704;52.006;4.374;2023-03-15T02:36:38;5.60;;;2.10;;
17177;SDS011;8704;52.006;4.374;2023-03-15T02:39:13;7.22;;;2.58;;
17177;SDS011;8704;52.006;4.374;2023-03-15T02:41:42;7.95;;;2.30;;
17177;SDS011;8704;52.006;4.374;2023-03-15T02:44:16;6.53;;;2.25;;
17177;SDS011;8704;52.006;4.374;2023-03-15T02:46:49;8.20;;;2.33;;
17177;SDS011;8704;52.006;4.374;2023-03-15T02:49:20;6.15;;;2.05;;
17177;SDS011;8704;52.006;4.374;2023-03-15T02:51:52;4.70;;;2.13;;
17177;SDS011;8704;52.006;4.374;2023-03-15T02:54:20;4.28;;;2.22;;
17177;SDS011;8704;52.006;4.374;2023-03-15T02:56:48;5.88;;;2.15;;
17177;SDS011;8704;52.006;4.374;2023-03-15T02:59:18;6.75;;;1.98;;
17177;SDS011;8704;52.006;4.374;2023-03-15T03:01:46;9.25;;;2.65;;
17177;SDS011;8704;52.006;4.374;2023-03-15T03:04:14;8.07;;;2.33;;
17177;SDS011;8704;52.006;4.374;2023-03-15T03:06:42;6.50;;;2.15;;
17177;SDS011;8704;52.006;4.374;2023-03-15T03:09:10;7.07;;;2.50;;
17177;SDS011;8704;52.006;4.374;2023-03-15T03:11:39;6.38;;;2.83;;
17177;SDS011;8704;52.006;4.374;2023-03-15T03:14:07;6.80;;;2.40;;
17177;SDS011;8704;52.006;4.374;2023-03-15T03:16:36;4.70;;;2.17;;
17177;SDS011;8704;52.006;4.374;2023-03-15T03:19:04;7.05;;;2.97;;
17177;SDS011;8704;52.006;4.374;2023-03-15T03:21:32;7.95;;;3.30;;
17177;SDS011;8704;52.006;4.374;2023-03-15T03:24:00;4.53;;;2.17;;
17177;SDS011;8704;52.006;4.374;2023-03-15T03:26:28;4.63;;;2.65;;
17177;SDS011;8704;52.006;4.374;2023-03-15T03:28:58;5.00;;;3.40;;
17177;SDS011;8704;52.006;4.374;2023-03-15T03:31:26;3.53;;;2.80;;
17177;SDS011;8704;52.006;4.374;2023-03-15T03:33:55;5.82;;;3.03;;
17177;SDS011;8704;52.006;4.374;2023-03-15T03:36:24;4.53;;;3.03;;
17177;SDS011;8704;52.006;4.374;2023-03-15T03:38:52;5.72;;;3.17;;
17177;SDS011;8704;52.006;4.374;2023-03-15T03:41:22;3.08;;;2.78;;
17177;SDS011;8704;52.006;4.374;2023-03-15T03:43:50;4.82;;;2.83;;
17177;SDS011;8704;52.006;4.374;2023-03-15T03:46:18;6.60;;;3.00;;
17177;SDS011;8704;52.006;4.374;2023-03-15T03:48:46;4.88;;;2.63;;
17177;SDS011;8704;52.006;4.374;2023-03-15T03:51:15;5.35;;;2.60;;
17177;SDS011;8704;52.006;4.374;2023-03-15T03:53:43;5.00;;;2.40;;
17177;SDS011;8704;52.006;4.374;2023-03-15T03:56:11;3.88;;;2.60;;
17177;SDS011;8704;52.006;4.374;2023-03-15T03:58:39;5.97;;;3.03;;
17177;SDS011;8704;52.006;4.374;2023-03-15T04:01:07;3.22;;;2.70;;
17177;SDS011;8704;52.006;4.374;2023-03-15T04:03:36;4.90;;;3.85;;
17177;SDS011;8704;52.006;4.374;2023-03-15T04:06:04;5.38;;;3.22;;
17177;SDS011;8704;52.006;4.374;2023-03-15T04:08:34;5.43;;;2.92;;
17177;SDS011;8704;52.006;4.374;2023-03-15T04:11:02;3.42;;;2.40;;
17177;SDS011;8704;52.006;4.374;2023-03-15T04:13:31;5.07;;;2.40;;
17177;SDS011;8704;52.006;4.374;2023-03-15T04:15:59;5.18;;;2.40;;
17177;SDS011;8704;52.006;4.374;2023-03-15T04:18:29;4.15;;;2.00;;
17177;SDS011;8704;52.006;4.374;2023-03-15T04:20:57;3.17;;;2.30;;
17177;SDS011;8704;52.006;4.374;2023-03-15T04:23:25;4.68;;;2.58;;
17177;SDS011;8704;52.006;4.374;2023-03-15T04:25:54;4.97;;;2.63;;
17177;SDS011;8704;52.006;4.374;2023-03-15T04:28:23;6.22;;;3.88;;
17177;SDS011;8704;52.006;4.374;2023-03-15T04:30:51;6.15;;;4.97;;
17177;SDS011;8704;52.006;4.374;2023-03-15T04:33:24;6.18;;;5.57;;
17177;SDS011;8704;52.006;4.374;2023-03-15T04:35:52;6.20;;;5.03;;
17177;SDS011;8704;52.006;4.374;2023-03-15T04:38:21;7.07;;;5.13;;
17177;SDS011;8704;52.006;4.374;2023-03-15T04:40:51;9.18;;;5.93;;
17177;SDS011;8704;52.006;4.374;2023-03-15T04:43:21;9.23;;;7.30;;
17177;SDS011;8704;52.006;4.374;2023-03-15T04:45:49;9.45;;;6.07;;
17177;SDS011;8704;52.006;4.374;2023-03-15T04:48:18;11.73;;;6.50;;
17177;SDS011;8704;52.006;4.374;2023-03-15T04:50:46;11.27;;;6.70;;
17177;SDS011;8704;52.006;4.374;2023-03-15T04:53:14;8.27;;;7.53;;
17177;SDS011;8704;52.006;4.374;2023-03-15T04:55:42;8.82;;;6.57;;
17177;SDS011;8704;52.006;4.374;2023-03-15T04:58:10;10.43;;;5.22;;
17177;SDS011;8704;52.006;4.374;2023-03-15T05:00:39;6.80;;;4.13;;
17177;SDS011;8704;52.006;4.374;2023-03-15T05:03:08;6.80;;;4.03;;
17177;SDS011;8704;52.006;4.374;2023-03-15T05:05:36;6.97;;;3.50;;
17177;SDS011;8704;52.006;4.374;2023-03-15T05:08:04;4.13;;;3.53;;
17177;SDS011;8704;52.006;4.374;2023-03-15T05:10:32;6.90;;;3.40;;
17177;SDS011;8704;52.006;4.374;2023-03-15T05:13:00;5.18;;;2.90;;
17177;SDS011;8704;52.006;4.374;2023-03-15T05:15:28;4.07;;;3.13;;
17177;SDS011;8704;52.006;4.374;2023-03-15T05:17:58;3.58;;;2.90;;
17177;SDS011;8704;52.006;4.374;2023-03-15T05:20:26;4.82;;;3.28;;
17177;SDS011;8704;52.006;4.374;2023-03-15T05:22:54;4.60;;;3.90;;
17177;SDS011;8704;52.006;4.374;2023-03-15T05:25:22;8.98;;;4.38;;
17177;SDS011;8704;52.006;4.374;2023-03-15T05:27:50;4.40;;;3.60;;
17177;SDS011;8704;52.006;4.374;2023-03-15T05:30:19;7.20;;;4.07;;
17177;SDS011;8704;52.006;4.374;2023-03-15T05:32:47;3.97;;;3.55;;
17177;SDS011;8704;52.006;4.374;2023-03-15T05:35:16;8.27;;;3.63;;
17177;SDS011;8704;52.006;4.374;2023-03-15T05:37:45;3.88;;;3.42;;
17177;SDS011;8704;52.006;4.374;2023-03-15T05:40:13;6.25;;;3.38;;
17177;SDS011;8704;52.006;4.374;2023-03-15T05:42:41;4.10;;;3.70;;
17177;SDS011;8704;52.006;4.374;2023-03-15T05:45:09;4.38;;;3.92;;
17177;SDS011;8704;52.006;4.374;2023-03-15T05:47:37;6.45;;;5.40;;
17177;SDS011;8704;52.006;4.374;2023-03-15T05:50:05;5.13;;;4.40;;
17177;SDS011;8704;52.006;4.374;2023-03-15T05:52:35;5.47;;;4.25;;
17177;SDS011;8704;52.006;4.374;2023-03-15T05:55:04;5.78;;;4.05;;
17177;SDS011;8704;52.006;4.374;2023-03-15T05:57:32;7.80;;;3.97;;
17177;SDS011;8704;52.006;4.374;2023-03-15T06:00:00;8.07;;;4.25;;
17177;SDS011;8704;52.006;4.374;2023-03-15T06:02:32;5.43;;;4.20;;
17177;SDS011;8704;52.006;4.374;2023-03-15T06:05:00;4.88;;;4.28;;
17177;SDS011;8704;52.006;4.374;2023-03-15T06:07:28;7.85;;;4.03;;
17177;SDS011;8704;52.006;4.374;2023-03-15T06:09:57;7.80;;;4.90;;
17177;SDS011;8704;52.006;4.374;2023-03-15T06:12:25;6.20;;;5.40;;
17177;SDS011;8704;52.006;4.374;2023-03-15T06:14:53;6.25;;;5.65;;
17177;SDS011;8704;52.006;4.374;2023-03-15T06:17:21;13.20;;;7.60;;
17177;SDS011;8704;52.006;4.374;2023-03-15T06:19:49;9.32;;;8.43;;
17177;SDS011;8704;52.006;4.374;2023-03-15T06:22:17;12.25;;;9.48;;
17177;SDS011;8704;52.006;4.374;2023-03-15T06:24:46;13.82;;;10.75;;
17177;SDS011;8704;52.006;4.374;2023-03-15T06:27:16;11.93;;;10.23;;
17177;SDS011;8704;52.006;4.374;2023-03-15T06:29:47;13.25;;;8.23;;
17177;SDS011;8704;52.006;4.374;2023-03-15T06:32:15;11.40;;;9.55;;
17177;SDS011;8704;52.006;4.374;2023-03-15T06:34:43;11.60;;;9.43;;
17177;SDS011;8704;52.006;4.374;2023-03-15T06:37:11;17.67;;;11.93;;
17177;SDS011;8704;52.006;4.374;2023-03-15T06:39:50;14.63;;;12.98;;
17177;SDS011;8704;52.006;4.374;2023-03-15T06:42:21;14.40;;;12.73;;
17177;SDS011;8704;52.006;4.374;2023-03-15T06:44:49;14.30;;;13.05;;
17177;SDS011;8704;52.006;4.374;2023-03-15T06:47:17;15.25;;;12.50;;
17177;SDS011;8704;52.006;4.374;2023-03-15T06:49:45;14.63;;;12.48;;
17177;SDS011;8704;52.006;4.374;2023-03-15T06:52:15;21.40;;;13.05;;
17177;SDS011;8704;52.006;4.374;2023-03-15T06:54:43;18.73;;;12.80;;
17177;SDS011;8704;52.006;4.374;2023-03-15T06:57:12;19.98;;;14.75;;
17177;SDS011;8704;52.006;4.374;2023-03-15T06:59:41;17.83;;;16.23;;
17177;SDS011;8704;52.006;4.374;2023-03-15T07:02:12;20.77;;;17.27;;
17177;SDS011;8704;52.006;4.374;2023-03-15T07:04:41;17.23;;;15.85;;
17177;SDS011;8704;52.006;4.374;2023-03-15T07:07:10;18.38;;;16.48;;
17177;SDS011;8704;52.006;4.374;2023-03-15T07:09:38;18.65;;;16.98;;
17177;SDS011;8704;52.006;4.374;2023-03-15T07:12:08;22.58;;;19.85;;
17177;SDS011;8704;52.006;4.374;2023-03-15T07:14:37;22.27;;;20.30;;
17177;SDS011;8704;52.006;4.374;2023-03-15T07:17:06;23.33;;;21.55;;
17177;SDS011;8704;52.006;4.374;2023-03-15T07:19:34;21.80;;;20.08;;
17177;SDS011;8704;52.006;4.374;2023-03-15T07:22:19;22.20;;;20.10;;
17177;SDS011;8704;52.006;4.374;2023-03-15T07:24:48;20.35;;;18.02;;
17177;SDS011;8704;52.006;4.374;2023-03-15T07:27:16;18.58;;;16.65;;
17177;SDS011;8704;52.006;4.374;2023-03-15T07:29:45;20.23;;;14.63;;
17177;SDS011;8704;52.006;4.374;2023-03-15T07:32:15;14.80;;;13.32;;
17177;SDS011;8704;52.006;4.374;2023-03-15T07:34:43;17.40;;;8.13;;
17177;SDS011;8704;52.006;4.374;2023-03-15T07:37:11;10.90;;;7.07;;
17177;SDS011;8704;52.006;4.374;2023-03-15T07:39:39;12.32;;;8.70;;
17177;SDS011;8704;52.006;4.374;2023-03-15T07:42:08;9.63;;;6.72;;
17177;SDS011;8704;52.006;4.374;2023-03-15T07:44:36;9.48;;;7.68;;
17177;SDS011;8704;52.006;4.374;2023-03-15T07:47:04;9.18;;;8.27;;
17177;SDS011;8704;52.006;4.374;2023-03-15T07:49:34;10.77;;;7.90;;
17177;SDS011;8704;52.006;4.374;2023-03-15T07:52:02;9.15;;;7.20;;
17177;SDS011;8704;52.006;4.374;2023-03-15T07:54:31;8.30;;;6.95;;
17177;SDS011;8704;52.006;4.374;2023-03-15T07:56:59;12.85;;;5.90;;
17177;SDS011;8704;52.006;4.374;2023-03-15T07:59:27;8.75;;;5.65;;
17177;SDS011;8704;52.006;4.374;2023-03-15T08:01:55;7.55;;;4.63;;
17177;SDS011;8704;52.006;4.374;2023-03-15T08:04:27;8.93;;;4.22;;
17177;SDS011;8704;52.006;4.374;2023-03-15T08:06:56;10.40;;;4.70;;
17177;SDS011;8704;52.006;4.374;2023-03-15T08:09:25;9.65;;;4.97;;
17177;SDS011;8704;52.006;4.374;2023-03-15T08:11:53;9.43;;;5.05;;
17177;SDS011;8704;52.006;4.374;2023-03-15T08:14:21;12.35;;;5.03;;
17177;SDS011;8704;52.006;4.374;2023-03-15T08:16:49;8.38;;;5.32;;
17177;SDS011;8704;52.006;4.374;2023-03-15T08:19:18;7.60;;;3.50;;
17177;SDS011;8704;52.006;4.374;2023-03-15T08:21:47;8.23;;;4.40;;
17177;SDS011;8704;52.006;4.374;2023-03-15T08:24:21;9.88;;;4.20;;
17177;SDS011;8704;52.006;4.374;2023-03-15T08:26:49;6.80;;;4.20;;
17177;SDS011;8704;52.006;4.374;2023-03-15T08:29:17;8.55;;;4.50;;
17177;SDS011;8704;52.006;4.374;2023-03-15T08:31:45;10.93;;;4.68;;
17177;SDS011;8704;52.006;4.374;2023-03-15T08:34:14;10.73;;;4.57;;
17177;SDS011;8704;52.006;4.374;2023-03-15T08:36:42;11.10;;;3.50;;
17177;SDS011;8704;52.006;4.374;2023-03-15T08:39:12;13.63;;;3.83;;
17177;SDS011;8704;52.006;4.374;2023-03-15T08:41:42;8.95;;;3.53;;
17177;SDS011;8704;52.006;4.374;2023-03-15T08:44:11;8.98;;;2.78;;
17177;SDS011;8704;52.006;4.374;2023-03-15T08:46:39;11.25;;;2.50;;
17177;SDS011;8704;52.006;4.374;2023-03-15T08:49:08;6.68;;;2.40;;
17177;SDS011;8704;52.006;4.374;2023-03-15T08:51:36;9.65;;;2.10;;
17177;SDS011;8704;52.006;4.374;2023-03-15T08:54:04;9.48;;;2.40;;
17177;SDS011;8704;52.006;4.374;2023-03-15T08:56:32;8.02;;;1.98;;
17177;SDS011;8704;52.006;4.374;2023-03-15T08:59:02;6.88;;;1.98;;
17177;SDS011;8704;52.006;4.374;2023-03-15T09:01:30;9.40;;;1.88;;
17177;SDS011;8704;52.006;4.374;2023-03-15T09:03:58;9.55;;;1.80;;
17177;SDS011;8704;52.006;4.374;2023-03-15T09:06:26;7.57;;;1.73;;
17177;SDS011;8704;52.006;4.374;2023-03-15T09:08:55;10.88;;;1.80;;
17177;SDS011;8704;52.006;4.374;2023-03-15T09:11:23;7.88;;;1.60;;
17177;SDS011;8704;52.006;4.374;2023-03-15T09:13:51;10.13;;;2.00;;
17177;SDS011;8704;52.006;4.374;2023-03-15T09:16:20;11.50;;;1.67;;
17177;SDS011;8704;52.006;4.374;2023-03-15T09:18:48;7.38;;;1.88;;
17177;SDS011;8704;52.006;4.374;2023-03-15T09:21:16;7.85;;;1.60;;
17177;SDS011;8704;52.006;4.374;2023-03-15T09:23:44;7.80;;;1.63;;
17177;SDS011;8704;52.006;4.374;2023-03-15T09:26:12;10.40;;;1.63;;
17177;SDS011;8704;52.006;4.374;2023-03-15T09:28:40;8.50;;;1.92;;
17177;SDS011;8704;52.006;4.374;2023-03-15T09:31:08;6.22;;;1.20;;
17177;SDS011;8704;52.006;4.374;2023-03-15T09:33:38;5.60;;;1.35;;
17177;SDS011;8704;52.006;4.374;2023-03-15T09:36:06;8.10;;;1.60;;
17177;SDS011;8704;52.006;4.374;2023-03-15T09:38:34;8.93;;;1.48;;
17177;SDS011;8704;52.006;4.374;2023-03-15T09:41:02;6.28;;;0.98;;
17177;SDS011;8704;52.006;4.374;2023-03-15T09:43:36;5.10;;;1.40;;
17177;SDS011;8704;52.006;4.374;2023-03-15T09:46:23;5.25;;;1.40;;
17177;SDS011;8704;52.006;4.374;2023-03-15T09:48:57;8.65;;;1.35;;
17177;SDS011;8704;52.006;4.374;2023-03-15T09:51:33;7.47;;;1.65;;
17177;SDS011;8704;52.006;4.374;2023-03-15T09:54:07;4.93;;;1.20;;
17177;SDS011;8704;52.006;4.374;2023-03-15T09:56:41;5.63;;;1.05;;
17177;SDS011;8704;52.006;4.374;2023-03-15T09:59:15;6.25;;;1.58;;
17177;SDS011;8704;52.006;4.374;2023-03-15T10:01:48;7.75;;;1.13;;
17177;SDS011;8704;52.006;4.374;2023-03-15T10:04:24;6.82;;;1.30;;
17177;SDS011;8704;52.006;4.374;2023-03-15T10:06:56;6.07;;;1.20;;
17177;SDS011;8704;52.006;4.374;2023-03-15T10:09:27;6.30;;;1.33;;
17177;SDS011;8704;52.006;4.374;2023-03-15T10:12:01;5.90;;;1.17;;
17177;SDS011;8704;52.006;4.374;2023-03-15T10:14:37;5.82;;;1.20;;
17177;SDS011;8704;52.006;4.374;2023-03-15T10:17:28;7.15;;;1.40;;
17177;SDS011;8704;52.006;4.374;2023-03-15T10:20:03;5.82;;;1.23;;
17177;SDS011;8704;52.006;4.374;2023-03-15T10:22:36;5.75;;;1.45;;
17177;SDS011;8704;52.006;4.374;2023-03-15T10:25:12;9.02;;;1.80;;
17177;SDS011;8704;52.006;4.374;2023-03-15T10:27:44;7.90;;;2.03;;
17177;SDS011;8704;52.006;4.374;2023-03-15T10:30:16;5.07;;;1.60;;
17177;SDS011;8704;52.006;4.374;2023-03-15T10:32:48;4.80;;;1.73;;
17177;SDS011;8704;52.006;4.374;2023-03-15T10:35:22;8.82;;;1.95;;
17177;SDS011;8704;52.006;4.374;2023-03-15T10:37:50;8.80;;;1.90;;
17177;SDS011;8704;52.006;4.374;2023-03-15T10:43:10;5.82;;;1.80;;
17177;SDS011;8704;52.006;4.374;2023-03-15T10:45:40;7.00;;;1.70;;
17177;SDS011;8704;52.006;4.374;2023-03-15T10:48:08;10.43;;;2.53;;
17177;SDS011;8704;52.006;4.374;2023-03-15T10:50:38;7.32;;;1.98;;
17177;SDS011;8704;52.006;4.374;2023-03-15T10:53:10;9.40;;;2.15;;
17177;SDS011;8704;52.006;4.374;2023-03-15T10:55:45;8.30;;;2.50;;
17177;SDS011;8704;52.006;4.374;2023-03-15T10:58:18;7.50;;;1.90;;
17177;SDS011;8704;52.006;4.374;2023-03-15T11:00:51;7.32;;;1.70;;
17177;SDS011;8704;52.006;4.374;2023-03-15T11:03:24;7.35;;;2.00;;
17177;SDS011;8704;52.006;4.374;2023-03-15T11:05:55;10.10;;;2.05;;
17177;SDS011;8704;52.006;4.374;2023-03-15T11:08:34;7.28;;;1.77;;
17177;SDS011;8704;52.006;4.374;2023-03-15T11:11:04;6.57;;;1.35;;
17177;SDS011;8704;52.006;4.374;2023-03-15T11:13:34;10.27;;;2.00;;
17177;SDS011;8704;52.006;4.374;2023-03-15T11:16:04;8.30;;;1.55;;
17177;SDS011;8704;52.006;4.374;2023-03-15T11:18:36;5.43;;;1.73;;
17177;SDS011;8704;52.006;4.374;2023-03-15T11:21:12;7.65;;;1.70;;
17177;SDS011;8704;52.006;4.374;2023-03-15T11:23:42;5.63;;;1.70;;
17177;SDS011;8704;52.006;4.374;2023-03-15T11:26:14;7.60;;;1.60;;
17177;SDS011;8704;52.006;4.374;2023-03-15T11:28:58;5.65;;;1.20;;
17177;SDS011;8704;52.006;4.374;2023-03-15T11:31:27;4.40;;;1.50;;
17177;SDS011;8704;52.006;4.374;2023-03-15T11:33:57;8.18;;;1.95;;
17177;SDS011;8704;52.006;4.374;2023-03-15T11:39:00;6.60;;;1.50;;
17177;SDS011;8704;52.006;4.374;2023-03-15T11:41:31;5.28;;;1.08;;
17177;SDS011;8704;52.006;4.374;2023-03-15T11:44:10;5.38;;;1.33;;
17177;SDS011;8704;52.006;4.374;2023-03-15T11:46:45;5.97;;;1.58;;
17177;SDS011;8704;52.006;4.374;2023-03-15T11:49:18;7.55;;;1.30;;
17177;SDS011;8704;52.006;4.374;2023-03-15T11:51:57;6.57;;;1.50;;
17177;SDS011;8704;52.006;4.374;2023-03-15T11:54:27;7.15;;;1.30;;
17177;SDS011;8704;52.006;4.374;2023-03-15T11:57:00;7.70;;;1.38;;
17177;SDS011;8704;52.006;4.374;2023-03-15T11:59:31;8.45;;;1.52;;
17177;SDS011;8704;52.006;4.374;2023-03-15T12:02:05;7.78;;;1.77;;
17177;SDS011;8704;52.006;4.374;2023-03-15T12:05:03;7.72;;;1.58;;
17177;SDS011;8704;52.006;4.374;2023-03-15T12:08:00;7.72;;;1.30;;
17177;SDS011;8704;52.006;4.374;2023-03-15T12:10:44;7.20;;;1.60;;
17177;SDS011;8704;52.006;4.374;2023-03-15T12:13:24;4.07;;;1.20;;
17177;SDS011;8704;52.006;4.374;2023-03-15T12:15:55;7.10;;;1.35;;
17177;SDS011;8704;52.006;4.374;2023-03-15T12:18:25;3.92;;;1.20;;
17177;SDS011;8704;52.006;4.374;2023-03-15T12:21:07;6.55;;;1.70;;
17177;SDS011;8704;52.006;4.374;2023-03-15T12:23:40;7.45;;;1.38;;
17177;SDS011;8704;52.006;4.374;2023-03-15T12:26:22;3.15;;;1.08;;
17177;SDS011;8704;52.006;4.374;2023-03-15T12:31:55;5.57;;;1.40;;
17177;SDS011;8704;52.006;4.374;2023-03-15T12:34:35;5.18;;;1.30;;
17177;SDS011;8704;52.006;4.374;2023-03-15T12:37:12;4.20;;;1.20;;
17177;SDS011;8704;52.006;4.374;2023-03-15T12:42:58;4.55;;;1.13;;
17177;SDS011;8704;52.006;4.374;2023-03-15T12:45:44;5.43;;;0.90;;
17177;SDS011;8704;52.006;4.374;2023-03-15T12:48:20;3.65;;;1.00;;
17177;SDS011;8704;52.006;4.374;2023-03-15T12:50:57;4.45;;;0.98;;
17177;SDS011;8704;52.006;4.374;2023-03-15T12:53:34;6.40;;;1.13;;
17177;SDS011;8704;52.006;4.374;2023-03-15T12:56:24;5.78;;;1.20;;
17177;SDS011;8704;52.006;4.374;2023-03-15T12:59:24;4.57;;;1.20;;
17177;SDS011;8704;52.006;4.374;2023-03-15T13:01:58;4.07;;;0.90;;
17177;SDS011;8704;52.006;4.374;2023-03-15T13:04:27;2.92;;;1.00;;
17177;SDS011;8704;52.006;4.374;2023-03-15T13:10:02;4.10;;;0.90;;
17177;SDS011;8704;52.006;4.374;2023-03-15T13:12:51;4.05;;;1.00;;
17177;SDS011;8704;52.006;4.374;2023-03-15T13:15:26;4.28;;;0.93;;
17177;SDS011;8704;52.006;4.374;2023-03-15T13:18:02;4.15;;;1.05;;
17177;SDS011;8704;52.006;4.374;2023-03-15T13:20:46;3.45;;;1.00;;
17177;SDS011;8704;52.006;4.374;2023-03-15T13:23:19;4.70;;;1.10;;
17177;SDS011;8704;52.006;4.374;2023-03-15T13:25:53;2.65;;;0.70;;
17177;SDS011;8704;52.006;4.374;2023-03-15T13:28:32;5.03;;;1.10;;
17177;SDS011;8704;52.006;4.374;2023-03-15T13:31:11;3.00;;;1.05;;
17177;SDS011;8704;52.006;4.374;2023-03-15T13:33:45;4.40;;;1.23;;
17177;SDS011;8704;52.006;4.374;2023-03-15T13:36:15;4.15;;;0.98;;
17177;SDS011;8704;52.006;4.374;2023-03-15T13:38:45;3.55;;;1.02;;
17177;SDS011;8704;52.006;4.374;2023-03-15T13:41:17;5.25;;;1.20;;
17177;SDS011;8704;52.006;4.374;2023-03-15T13:43:49;4.07;;;0.90;;
17177;SDS011;8704;52.006;4.374;2023-03-15T13:46:19;5.40;;;0.88;;
17177;SDS011;8704;52.006;4.374;2023-03-15T13:48:49;5.13;;;1.00;;
17177;SDS011;8704;52.006;4.374;2023-03-15T13:51:19;4.70;;;1.10;;
17177;SDS011;8704;52.006;4.374;2023-03-15T13:53:51;3.40;;;1.00;;
17177;SDS011;8704;52.006;4.374;2023-03-15T13:56:26;6.10;;;1.10;;
17177;SDS011;8704;52.006;4.374;2023-03-15T13:59:10;3.17;;;1.08;;
17177;SDS011;8704;52.006;4.374;2023-03-15T14:01:40;5.00;;;1.10;;
17177;SDS011;8704;52.006;4.374;2023-03-15T14:04:11;2.50;;;1.10;;
17177;SDS011;8704;52.006;4.374;2023-03-15T14:06:42;4.85;;;1.17;;
17177;SDS011;8704;52.006;4.374;2023-03-15T14:09:16;3.95;;;1.27;;
17177;SDS011;8704;52.006;4.374;2023-03-15T14:11:58;4.68;;;1.02;;
17177;SDS011;8704;52.006;4.374;2023-03-15T14:14:29;3.17;;;1.00;;
17177;SDS011;8704;52.006;4.374;2023-03-15T14:16:58;3.30;;;0.90;;
17177;SDS011;8704;52.006;4.374;2023-03-15T14:19:34;2.63;;;0.90;;
17177;SDS011;8704;52.006;4.374;2023-03-15T14:22:03;3.90;;;0.95;;
17177;SDS011;8704;52.006;4.374;2023-03-15T14:24:41;3.28;;;1.02;;
17177;SDS011;8704;52.006;4.374;2023-03-15T14:27:13;3.88;;;1.00;;
17177;SDS011;8704;52.006;4.374;2023-03-15T14:29:46;3.83;;;1.10;;
17177;SDS011;8704;52.006;4.374;2023-03-15T14:32:23;4.18;;;0.90;;
17177;SDS011;8704;52.006;4.374;2023-03-15T14:34:58;3.13;;;1.10;;
17177;SDS011;8704;52.006;4.374;2023-03-15T14:37:29;2.72;;;1.00;;
17177;SDS011;8704;52.006;4.374;2023-03-15T14:40:06;2.63;;;1.02;;
17177;SDS011;8704;52.006;4.374;2023-03-15T14:42:41;3.83;;;1.08;;
17177;SDS011;8704;52.006;4.374;2023-03-15T14:45:11;2.67;;;0.90;;
17177;SDS011;8704;52.006;4.374;2023-03-15T14:47:40;4.93;;;0.98;;
17177;SDS011;8704;52.006;4.374;2023-03-15T14:50:22;4.20;;;1.10;;
17177;SDS011;8704;52.006;4.374;2023-03-15T14:52:52;3.63;;;1.02;;
17177;SDS011;8704;52.006;4.374;2023-03-15T14:55:23;2.38;;;0.80;;
17177;SDS011;8704;52.006;4.374;2023-03-15T14:57:55;4.72;;;0.90;;
17177;SDS011;8704;52.006;4.374;2023-03-15T15:00:25;2.65;;;0.80;;
17177;SDS011;8704;52.006;4.374;2023-03-15T15:02:53;5.72;;;0.80;;
17177;SDS011;8704;52.006;4.374;2023-03-15T15:05:24;2.92;;;1.05;;
17177;SDS011;8704;52.006;4.374;2023-03-15T15:08:01;4.00;;;1.10;;
17177;SDS011;8704;52.006;4.374;2023-03-15T15:10:31;2.85;;;1.08;;
17177;SDS011;8704;52.006;4.374;2023-03-15T15:13:00;2.90;;;0.90;;
17177;SDS011;8704;52.006;4.374;2023-03-15T15:18:20;3.58;;;1.20;;
17177;SDS011;8704;52.006;4.374;2023-03-15T15:20:49;3.30;;;1.25;;
17177;SDS011;8704;52.006;4.374;2023-03-15T15:23:21;3.20;;;1.10;;
17177;SDS011;8704;52.006;4.374;2023-03-15T15:25:52;4.63;;;1.25;;
17177;SDS011;8704;52.006;4.374;2023-03-15T15:28:23;3.60;;;1.30;;
17177;SDS011;8704;52.006;4.374;2023-03-15T15:31:04;3.42;;;1.10;;
17177;SDS011;8704;52.006;4.374;2023-03-15T15:33:33;4.43;;;1.33;;
17177;SDS011;8704;52.006;4.374;2023-03-15T15:36:01;2.30;;;1.05;;
17177;SDS011;8704;52.006;4.374;2023-03-15T15:38:30;4.07;;;1.13;;
17177;SDS011;8704;52.006;4.374;2023-03-15T15:41:04;3.60;;;1.10;;
17177;SDS011;8704;52.006;4.374;2023-03-15T15:43:37;3.97;;;1.13;;
17177;SDS011;8704;52.006;4.374;2023-03-15T15:46:08;4.70;;;1.10;;